sensor_id;sensor_type;location;lat;lon;timestamp;pressure;altitude;pressure_sealevel;temperature;humidity
10668;BME280;5382;42.136;24.796;2023-04-15T00:00:16;99137.38;;;13.16;100.00
10668;BME280;5382;42.136;24.796;2023-04-15T00:02:43;99138.38;;;13.15;100.00
10668;BME280;5382;42.136;24.796;2023-04-15T00:05:10;99134.00;;;13.23;100.00
10668;BME280;5382;42.136;24.796;2023-04-15T00:07:36;99138.22;;;13.16;100.00
10668;BME280;5382;42.136;24.796;2023-04-15T00:10:05;99140.44;;;13.21;100.00
10668;BME280;5382;42.136;24.796;2023-04-15T00:12:32;99154.28;;;13.24;100.00
10668;BME280;5382;42.136;24.796;2023-04-15T00:14:59;99149.81;;;13.15;100.00
10668;BME280;5382;42.136;24.796;2023-04-15T00:17:28;99148.28;;;13.22;100.00
10668;BME280;5382;42.136;24.796;2023-04-15T00:19:54;99165.47;;;13.18;100.00
10668;BME280;5382;42.136;24.796;2023-04-15T00:22:21;99164.22;;;13.22;100.00
10668;BME280;5382;42.136;24.796;2023-04-15T00:24:48;99155.41;;;13.22;100.00
10668;BME280;5382;42.136;24.796;2023-04-15T00:27:15;99148.84;;;13.16;100.00
10668;BME280;5382;42.136;24.796;2023-04-15T00:29:41;99147.97;;;13.25;100.00
10668;BME280;5382;42.136;24.796;2023-04-15T00:32:08;99159.03;;;13.30;100.00
10668;BME280;5382;42.136;24.796;2023-04-15T00:34:36;99161.84;;;13.19;100.00
10668;BME280;5382;42.136;24.796;2023-04-15T00:37:03;99143.78;;;13.23;100.00
10668;BME280;5382;42.136;24.796;2023-04-15T00:39:30;99146.16;;;13.36;100.00
10668;BME280;5382;42.136;24.796;2023-04-15T00:41:56;99134.59;;;13.17;100.00
10668;BME280;5382;42.136;24.796;2023-04-15T00:44:23;99137.00;;;13.01;100.00
10668;BME280;5382;42.136;24.796;2023-04-15T00:46:50;99135.34;;;13.00;100.00
10668;BME280;5382;42.136;24.796;2023-04-15T00:49:17;99139.84;;;12.90;100.00
10668;BME280;5382;42.136;24.796;2023-04-15T00:51:45;99143.19;;;12.92;100.00
10668;BME280;5382;42.136;24.796;2023-04-15T00:54:12;99138.72;;;12.92;100.00
10668;BME280;5382;42.136;24.796;2023-04-15T00:56:39;99136.59;;;12.96;100.00
10668;BME280;5382;42.136;24.796;2023-04-15T00:59:07;99126.03;;;12.86;100.00
10668;BME280;5382;42.136;24.796;2023-04-15T01:04:19;99134.41;;;12.81;100.00
10668;BME280;5382;42.136;24.796;2023-04-15T01:06:48;99132.34;;;12.75;100.00
10668;BME280;5382;42.136;24.796;2023-04-15T01:09:14;99135.00;;;12.75;100.00
10668;BME280;5382;42.136;24.796;2023-04-15T01:11:41;99139.91;;;12.60;100.00
10668;BME280;5382;42.136;24.796;2023-04-15T01:14:08;99141.03;;;12.38;100.00
10668;BME280;5382;42.136;24.796;2023-04-15T01:16:35;99149.72;;;12.21;100.00
10668;BME280;5382;42.136;24.796;2023-04-15T01:19:04;99153.75;;;12.25;100.00
10668;BME280;5382;42.136;24.796;2023-04-15T01:21:31;99162.69;;;12.24;100.00
10668;BME280;5382;42.136;24.796;2023-04-15T01:24:00;99150.66;;;12.10;100.00
10668;BME280;5382;42.136;24.796;2023-04-15T01:26:30;99148.00;;;12.20;100.00
10668;BME280;5382;42.136;24.796;2023-04-15T01:28:57;99159.34;;;12.22;100.00
10668;BME280;5382;42.136;24.796;2023-04-15T01:31:24;99168.13;;;12.22;100.00
10668;BME280;5382;42.136;24.796;2023-04-15T01:33:51;99175.94;;;12.24;100.00
10668;BME280;5382;42.136;24.796;2023-04-15T01:36:18;99166.00;;;12.26;100.00
10668;BME280;5382;42.136;24.796;2023-04-15T01:38:45;99148.72;;;12.22;100.00
10668;BME280;5382;42.136;24.796;2023-04-15T01:41:13;99146.88;;;12.13;100.00
10668;BME280;5382;42.136;24.796;2023-04-15T01:43:41;99140.75;;;12.03;100.00
10668;BME280;5382;42.136;24.796;2023-04-15T01:46:08;99160.84;;;12.15;100.00
10668;BME280;5382;42.136;24.796;2023-04-15T01:48:34;99155.56;;;12.15;100.00
10668;BME280;5382;42.136;24.796;2023-04-15T01:51:01;99170.06;;;12.20;100.00
10668;BME280;5382;42.136;24.796;2023-04-15T01:53:28;99173.84;;;12.18;100.00
10668;BME280;5382;42.136;24.796;2023-04-15T01:55:55;99177.34;;;12.18;100.00
10668;BME280;5382;42.136;24.796;2023-04-15T01:58:21;99171.19;;;12.08;100.00
10668;BME280;5382;42.136;24.796;2023-04-15T02:00:49;99191.13;;;12.12;100.00
10668;BME280;5382;42.136;24.796;2023-04-15T02:03:16;99199.59;;;11.87;100.00
10668;BME280;5382;42.136;24.796;2023-04-15T02:05:43;99212.97;;;11.85;100.00
10668;BME280;5382;42.136;24.796;2023-04-15T02:08:10;99215.88;;;11.72;100.00
10668;BME280;5382;42.136;24.796;2023-04-15T02:10:37;99206.22;;;11.71;100.00
10668;BME280;5382;42.136;24.796;2023-04-15T02:13:04;99196.13;;;11.55;100.00
10668;BME280;5382;42.136;24.796;2023-04-15T02:15:31;99204.66;;;11.59;100.00
10668;BME280;5382;42.136;24.796;2023-04-15T02:18:00;99212.19;;;11.54;100.00
10668;BME280;5382;42.136;24.796;2023-04-15T02:20:27;99204.06;;;11.55;100.00
10668;BME280;5382;42.136;24.796;2023-04-15T02:22:55;99207.31;;;11.69;100.00
10668;BME280;5382;42.136;24.796;2023-04-15T02:25:22;99186.94;;;11.60;100.00
10668;BME280;5382;42.136;24.796;2023-04-15T02:27:49;99209.97;;;11.69;100.00
10668;BME280;5382;42.136;24.796;2023-04-15T02:30:16;99205.50;;;11.60;100.00
10668;BME280;5382;42.136;24.796;2023-04-15T02:32:42;99197.38;;;11.51;100.00
10668;BME280;5382;42.136;24.796;2023-04-15T02:35:11;99183.16;;;11.52;100.00
10668;BME280;5382;42.136;24.796;2023-04-15T02:37:37;99188.44;;;11.52;100.00
10668;BME280;5382;42.136;24.796;2023-04-15T02:40:08;99192.97;;;11.62;100.00
10668;BME280;5382;42.136;24.796;2023-04-15T02:42:37;99196.19;;;11.75;100.00
10668;BME280;5382;42.136;24.796;2023-04-15T02:45:04;99209.13;;;11.68;100.00
10668;BME280;5382;42.136;24.796;2023-04-15T02:47:31;99208.03;;;11.71;100.00
10668;BME280;5382;42.136;24.796;2023-04-15T02:49:58;99212.66;;;11.78;100.00
10668;BME280;5382;42.136;24.796;2023-04-15T02:52:27;99208.88;;;11.71;100.00
10668;BME280;5382;42.136;24.796;2023-04-15T02:54:54;99216.38;;;11.66;100.00
10668;BME280;5382;42.136;24.796;2023-04-15T02:57:25;99225.88;;;11.69;100.00
10668;BME280;5382;42.136;24.796;2023-04-15T02:59:51;99217.13;;;11.78;100.00
10668;BME280;5382;42.136;24.796;2023-04-15T03:02:18;99215.16;;;11.70;100.00
10668;BME280;5382;42.136;24.796;2023-04-15T03:04:45;99222.16;;;11.81;100.00
10668;BME280;5382;42.136;24.796;2023-04-15T03:07:12;99210.69;;;11.71;100.00
10668;BME280;5382;42.136;24.796;2023-04-15T03:09:40;99206.22;;;11.62;100.00
10668;BME280;5382;42.136;24.796;2023-04-15T03:12:07;99200.47;;;11.56;100.00
10668;BME280;5382;42.136;24.796;2023-04-15T03:14:33;99211.47;;;11.52;100.00
10668;BME280;5382;42.136;24.796;2023-04-15T03:17:00;99215.94;;;11.51;100.00
10668;BME280;5382;42.136;24.796;2023-04-15T03:19:27;99219.09;;;11.45;100.00
10668;BME280;5382;42.136;24.796;2023-04-15T03:21:54;99222.34;;;11.49;100.00
10668;BME280;5382;42.136;24.796;2023-04-15T03:24:20;99233.94;;;11.57;100.00
10668;BME280;5382;42.136;24.796;2023-04-15T03:26:49;99233.50;;;11.52;100.00
10668;BME280;5382;42.136;24.796;2023-04-15T03:29:15;99243.09;;;11.53;100.00
10668;BME280;5382;42.136;24.796;2023-04-15T03:31:42;99238.66;;;11.54;100.00
10668;BME280;5382;42.136;24.796;2023-04-15T03:34:09;99236.84;;;11.54;100.00
10668;BME280;5382;42.136;24.796;2023-04-15T03:36:36;99233.91;;;11.27;100.00
10668;BME280;5382;42.136;24.796;2023-04-15T03:39:03;99248.59;;;11.31;100.00
10668;BME280;5382;42.136;24.796;2023-04-15T03:41:29;99256.31;;;11.23;100.00
10668;BME280;5382;42.136;24.796;2023-04-15T03:43:58;99270.16;;;11.26;100.00
10668;BME280;5382;42.136;24.796;2023-04-15T03:46:25;99276.03;;;11.30;100.00
10668;BME280;5382;42.136;24.796;2023-04-15T03:48:52;99288.06;;;11.34;100.00
10668;BME280;5382;42.136;24.796;2023-04-15T03:51:19;99295.34;;;11.42;100.00
10668;BME280;5382;42.136;24.796;2023-04-15T03:53:45;99286.47;;;11.52;100.00
10668;BME280;5382;42.136;24.796;2023-04-15T03:56:12;99281.63;;;11.57;100.00
10668;BME280;5382;42.136;24.796;2023-04-15T03:58:39;99293.38;;;11.65;100.00
10668;BME280;5382;42.136;24.796;2023-04-15T04:01:07;99295.91;;;11.45;100.00
10668;BME280;5382;42.136;24.796;2023-04-15T04:03:34;99304.84;;;11.44;100.00
10668;BME280;5382;42.136;24.796;2023-04-15T04:06:01;99309.63;;;11.29;100.00
10668;BME280;5382;42.136;24.796;2023-04-15T04:08:28;99300.66;;;11.21;100.00
10668;BME280;5382;42.136;24.796;2023-04-15T04:10:55;99291.38;;;11.15;100.00
10668;BME280;5382;42.136;24.796;2023-04-15T04:13:22;99294.63;;;11.19;100.00
10668;BME280;5382;42.136;24.796;2023-04-15T04:15:49;99293.81;;;11.18;100.00
10668;BME280;5382;42.136;24.796;2023-04-15T04:18:17;99305.72;;;11.12;100.00
10668;BME280;5382;42.136;24.796;2023-04-15T04:20:44;99297.47;;;11.06;100.00
10668;BME280;5382;42.136;24.796;2023-04-15T04:23:10;99311.72;;;10.94;100.00
10668;BME280;5382;42.136;24.796;2023-04-15T04:25:37;99311.53;;;10.85;100.00
10668;BME280;5382;42.136;24.796;2023-04-15T04:28:04;99307.22;;;10.73;100.00
10668;BME280;5382;42.136;24.796;2023-04-15T04:30:31;99302.00;;;10.62;100.00
10668;BME280;5382;42.136;24.796;2023-04-15T04:32:58;99297.16;;;10.67;100.00
10668;BME280;5382;42.136;24.796;2023-04-15T04:35:26;99297.88;;;10.69;100.00
10668;BME280;5382;42.136;24.796;2023-04-15T04:37:53;99302.31;;;10.68;100.00
10668;BME280;5382;42.136;24.796;2023-04-15T04:40:19;99312.06;;;10.68;100.00
10668;BME280;5382;42.136;24.796;2023-04-15T04:42:46;99310.38;;;10.67;100.00
10668;BME280;5382;42.136;24.796;2023-04-15T04:45:13;99318.91;;;10.70;100.00
10668;BME280;5382;42.136;24.796;2023-04-15T04:47:40;99328.75;;;10.68;100.00
10668;BME280;5382;42.136;24.796;2023-04-15T04:50:07;99330.16;;;10.52;100.00
10668;BME280;5382;42.136;24.796;2023-04-15T04:52:36;99332.28;;;10.58;100.00
10668;BME280;5382;42.136;24.796;2023-04-15T04:55:03;99333.47;;;10.65;100.00
10668;BME280;5382;42.136;24.796;2023-04-15T04:57:30;99336.69;;;10.68;100.00
10668;BME280;5382;42.136;24.796;2023-04-15T04:59:57;99324.81;;;10.74;100.00
10668;BME280;5382;42.136;24.796;2023-04-15T05:02:23;99328.28;;;10.75;100.00
10668;BME280;5382;42.136;24.796;2023-04-15T05:04:51;99333.59;;;10.75;100.00
10668;BME280;5382;42.136;24.796;2023-04-15T05:07:19;99322.38;;;10.82;100.00
10668;BME280;5382;42.136;24.796;2023-04-15T05:09:47;99336.72;;;11.01;100.00
10668;BME280;5382;42.136;24.796;2023-04-15T05:12:14;99331.13;;;10.83;100.00
10668;BME280;5382;42.136;24.796;2023-04-15T05:14:42;99333.88;;;10.93;100.00
10668;BME280;5382;42.136;24.796;2023-04-15T05:17:11;99336.91;;;10.88;100.00
10668;BME280;5382;42.136;24.796;2023-04-15T05:19:38;99328.69;;;10.91;100.00
10668;BME280;5382;42.136;24.796;2023-04-15T05:22:05;99323.88;;;10.96;100.00
10668;BME280;5382;42.136;24.796;2023-04-15T05:24:32;99335.06;;;11.00;100.00
10668;BME280;5382;42.136;24.796;2023-04-15T05:27:00;99341.13;;;11.11;100.00
10668;BME280;5382;42.136;24.796;2023-04-15T05:29:27;99330.47;;;11.23;100.00
10668;BME280;5382;42.136;24.796;2023-04-15T05:31:54;99332.81;;;11.37;100.00
10668;BME280;5382;42.136;24.796;2023-04-15T05:34:21;99336.44;;;11.57;100.00
10668;BME280;5382;42.136;24.796;2023-04-15T05:36:47;99350.84;;;11.64;100.00
10668;BME280;5382;42.136;24.796;2023-04-15T05:39:14;99357.16;;;11.73;100.00
10668;BME280;5382;42.136;24.796;2023-04-15T05:41:41;99355.91;;;11.77;100.00
10668;BME280;5382;42.136;24.796;2023-04-15T05:44:10;99358.66;;;11.87;100.00
10668;BME280;5382;42.136;24.796;2023-04-15T05:46:37;99369.03;;;11.99;100.00
10668;BME280;5382;42.136;24.796;2023-04-15T05:49:03;99377.59;;;12.13;100.00
10668;BME280;5382;42.136;24.796;2023-04-15T05:51:30;99376.66;;;12.14;100.00
10668;BME280;5382;42.136;24.796;2023-04-15T05:53:57;99379.47;;;12.22;100.00
10668;BME280;5382;42.136;24.796;2023-04-15T05:56:24;99383.56;;;12.36;100.00
10668;BME280;5382;42.136;24.796;2023-04-15T05:58:52;99391.00;;;12.42;100.00
10668;BME280;5382;42.136;24.796;2023-04-15T06:01:20;99394.44;;;12.33;100.00
10668;BME280;5382;42.136;24.796;2023-04-15T06:03:47;99400.06;;;12.39;100.00
10668;BME280;5382;42.136;24.796;2023-04-15T06:06:14;99388.97;;;12.25;100.00
10668;BME280;5382;42.136;24.796;2023-04-15T06:08:41;99400.75;;;12.41;100.00
10668;BME280;5382;42.136;24.796;2023-04-15T06:11:08;99382.72;;;12.35;100.00
10668;BME280;5382;42.136;24.796;2023-04-15T06:13:34;99411.09;;;12.35;100.00
10668;BME280;5382;42.136;24.796;2023-04-15T06:16:01;99400.78;;;12.51;100.00
10668;BME280;5382;42.136;24.796;2023-04-15T06:18:30;99402.25;;;12.65;100.00
10668;BME280;5382;42.136;24.796;2023-04-15T06:20:56;99406.28;;;12.69;100.00
10668;BME280;5382;42.136;24.796;2023-04-15T06:23:23;99404.34;;;12.71;100.00
10668;BME280;5382;42.136;24.796;2023-04-15T06:25:50;99421.84;;;12.83;100.00
10668;BME280;5382;42.136;24.796;2023-04-15T06:28:17;99424.50;;;12.93;100.00
10668;BME280;5382;42.136;24.796;2023-04-15T06:30:44;99424.38;;;12.95;100.00
10668;BME280;5382;42.136;24.796;2023-04-15T06:33:11;99423.66;;;12.93;100.00
10668;BME280;5382;42.136;24.796;2023-04-15T06:35:39;99428.28;;;13.00;100.00
10668;BME280;5382;42.136;24.796;2023-04-15T06:38:06;99421.16;;;13.01;100.00
10668;BME280;5382;42.136;24.796;2023-04-15T06:40:33;99425.53;;;13.12;100.00
10668;BME280;5382;42.136;24.796;2023-04-15T06:42:59;99421.06;;;13.12;100.00
10668;BME280;5382;42.136;24.796;2023-04-15T06:45:26;99433.66;;;13.20;100.00
10668;BME280;5382;42.136;24.796;2023-04-15T06:47:53;99423.03;;;13.20;100.00
10668;BME280;5382;42.136;24.796;2023-04-15T06:50:20;99426.16;;;13.35;100.00
10668;BME280;5382;42.136;24.796;2023-04-15T06:52:48;99425.00;;;13.47;100.00
10668;BME280;5382;42.136;24.796;2023-04-15T06:55:15;99420.69;;;13.56;100.00
10668;BME280;5382;42.136;24.796;2023-04-15T06:57:42;99431.16;;;13.67;100.00
10668;BME280;5382;42.136;24.796;2023-04-15T07:00:10;99428.63;;;13.65;100.00
10668;BME280;5382;42.136;24.796;2023-04-15T07:02:37;99419.50;;;13.78;100.00
10668;BME280;5382;42.136;24.796;2023-04-15T07:05:05;99426.53;;;13.79;100.00
10668;BME280;5382;42.136;24.796;2023-04-15T07:07:32;99411.81;;;13.94;100.00
10668;BME280;5382;42.136;24.796;2023-04-15T07:10:00;99420.75;;;13.93;100.00
10668;BME280;5382;42.136;24.796;2023-04-15T07:12:27;99418.91;;;14.03;100.00
10668;BME280;5382;42.136;24.796;2023-04-15T07:14:54;99428.53;;;14.04;100.00
10668;BME280;5382;42.136;24.796;2023-04-15T07:17:21;99426.56;;;14.16;100.00
10668;BME280;5382;42.136;24.796;2023-04-15T07:19:48;99434.94;;;14.31;100.00
10668;BME280;5382;42.136;24.796;2023-04-15T07:22:15;99424.09;;;14.42;100.00
10668;BME280;5382;42.136;24.796;2023-04-15T07:24:42;99425.63;;;14.54;100.00
10668;BME280;5382;42.136;24.796;2023-04-15T07:27:10;99424.03;;;14.61;100.00
10668;BME280;5382;42.136;24.796;2023-04-15T07:29:36;99439.72;;;14.65;100.00
10668;BME280;5382;42.136;24.796;2023-04-15T07:32:04;99435.00;;;14.76;100.00
10668;BME280;5382;42.136;24.796;2023-04-15T07:34:31;99439.78;;;14.82;100.00
10668;BME280;5382;42.136;24.796;2023-04-15T07:36:58;99439.31;;;14.87;100.00
10668;BME280;5382;42.136;24.796;2023-04-15T07:39:24;99438.03;;;14.91;100.00
10668;BME280;5382;42.136;24.796;2023-04-15T07:41:51;99426.63;;;14.99;100.00
10668;BME280;5382;42.136;24.796;2023-04-15T07:44:19;99426.56;;;15.09;100.00
10668;BME280;5382;42.136;24.796;2023-04-15T07:46:46;99429.00;;;15.20;100.00
10668;BME280;5382;42.136;24.796;2023-04-15T07:49:13;99436.09;;;15.29;100.00
10668;BME280;5382;42.136;24.796;2023-04-15T07:51:40;99430.13;;;15.35;100.00
10668;BME280;5382;42.136;24.796;2023-04-15T07:54:07;99419.28;;;15.46;100.00
10668;BME280;5382;42.136;24.796;2023-04-15T07:56:34;99428.69;;;15.59;100.00
10668;BME280;5382;42.136;24.796;2023-04-15T07:59:01;99433.56;;;15.63;100.00
10668;BME280;5382;42.136;24.796;2023-04-15T08:01:30;99434.41;;;15.82;100.00
10668;BME280;5382;42.136;24.796;2023-04-15T08:03:58;99431.22;;;15.78;100.00
10668;BME280;5382;42.136;24.796;2023-04-15T08:06:25;99433.78;;;15.88;100.00
10668;BME280;5382;42.136;24.796;2023-04-15T08:08:51;99439.38;;;16.03;100.00
10668;BME280;5382;42.136;24.796;2023-04-15T08:11:18;99432.53;;;16.00;100.00
10668;BME280;5382;42.136;24.796;2023-04-15T08:13:45;99420.78;;;16.11;100.00
10668;BME280;5382;42.136;24.796;2023-04-15T08:16:17;99420.13;;;16.17;100.00
10668;BME280;5382;42.136;24.796;2023-04-15T08:18:46;99430.88;;;16.33;100.00
10668;BME280;5382;42.136;24.796;2023-04-15T08:21:13;99429.50;;;16.55;100.00
10668;BME280;5382;42.136;24.796;2023-04-15T08:23:39;99429.97;;;16.51;100.00
10668;BME280;5382;42.136;24.796;2023-04-15T08:26:07;99431.16;;;16.56;100.00
10668;BME280;5382;42.136;24.796;2023-04-15T08:28:34;99428.31;;;16.50;100.00
10668;BME280;5382;42.136;24.796;2023-04-15T08:31:01;99423.38;;;16.63;100.00
10668;BME280;5382;42.136;24.796;2023-04-15T08:33:28;99422.31;;;16.56;100.00
10668;BME280;5382;42.136;24.796;2023-04-15T08:35:56;99427.06;;;16.70;100.00
10668;BME280;5382;42.136;24.796;2023-04-15T08:38:23;99418.78;;;16.82;100.00
10668;BME280;5382;42.136;24.796;2023-04-15T08:40:50;99416.97;;;16.90;100.00
10668;BME280;5382;42.136;24.796;2023-04-15T08:43:20;99417.97;;;16.89;100.00
10668;BME280;5382;42.136;24.796;2023-04-15T08:45:49;99415.19;;;17.07;100.00
10668;BME280;5382;42.136;24.796;2023-04-15T08:48:17;99426.91;;;17.31;100.00
10668;BME280;5382;42.136;24.796;2023-04-15T08:50:45;99435.63;;;17.49;100.00
10668;BME280;5382;42.136;24.796;2023-04-15T08:53:14;99422.41;;;17.64;100.00
10668;BME280;5382;42.136;24.796;2023-04-15T08:55:42;99425.78;;;17.66;100.00
10668;BME280;5382;42.136;24.796;2023-04-15T08:58:10;99424.59;;;17.77;100.00
10668;BME280;5382;42.136;24.796;2023-04-15T09:00:37;99426.94;;;17.88;100.00
10668;BME280;5382;42.136;24.796;2023-04-15T09:03:05;99436.28;;;18.08;100.00
10668;BME280;5382;42.136;24.796;2023-04-15T09:05:33;99443.97;;;18.28;100.00
10668;BME280;5382;42.136;24.796;2023-04-15T09:08:01;99435.47;;;18.56;100.00
10668;BME280;5382;42.136;24.796;2023-04-15T09:10:29;99427.03;;;18.83;100.00
10668;BME280;5382;42.136;24.796;2023-04-15T09:12:56;99421.66;;;19.14;100.00
10668;BME280;5382;42.136;24.796;2023-04-15T09:15:24;99423.53;;;19.37;100.00
10668;BME280;5382;42.136;24.796;2023-04-15T09:17:51;99415.94;;;19.40;100.00
10668;BME280;5382;42.136;24.796;2023-04-15T09:20:18;99423.75;;;19.50;95.65
10668;BME280;5382;42.136;24.796;2023-04-15T09:22:47;99412.06;;;19.43;94.53
10668;BME280;5382;42.136;24.796;2023-04-15T09:25:33;99411.97;;;19.36;100.00
10668;BME280;5382;42.136;24.796;2023-04-15T09:28:00;99407.66;;;19.50;100.00
10668;BME280;5382;42.136;24.796;2023-04-15T09:30:28;99408.81;;;19.94;98.45
10668;BME280;5382;42.136;24.796;2023-04-15T09:32:56;99392.53;;;20.25;93.70
10668;BME280;5382;42.136;24.796;2023-04-15T09:35:25;99390.22;;;20.22;92.95
10668;BME280;5382;42.136;24.796;2023-04-15T09:37:53;99389.19;;;20.38;91.67
10668;BME280;5382;42.136;24.796;2023-04-15T09:40:30;99389.63;;;20.86;85.23
10668;BME280;5382;42.136;24.796;2023-04-15T09:42:59;99389.34;;;21.17;83.05
10668;BME280;5382;42.136;24.796;2023-04-15T09:45:27;99393.72;;;21.40;82.88
10668;BME280;5382;42.136;24.796;2023-04-15T09:47:56;99382.47;;;21.58;79.86
10668;BME280;5382;42.136;24.796;2023-04-15T09:50:26;99380.59;;;21.51;72.79
10668;BME280;5382;42.136;24.796;2023-04-15T09:52:54;99371.56;;;21.66;76.58
10668;BME280;5382;42.136;24.796;2023-04-15T09:55:21;99373.38;;;21.37;73.36
10668;BME280;5382;42.136;24.796;2023-04-15T09:57:48;99378.63;;;21.24;78.22
10668;BME280;5382;42.136;24.796;2023-04-15T10:00:16;99379.41;;;21.18;79.47
10668;BME280;5382;42.136;24.796;2023-04-15T10:02:43;99376.31;;;20.99;74.96
10668;BME280;5382;42.136;24.796;2023-04-15T10:05:14;99369.13;;;21.06;77.89
10668;BME280;5382;42.136;24.796;2023-04-15T10:07:41;99371.72;;;21.36;73.08
10668;BME280;5382;42.136;24.796;2023-04-15T10:10:09;99358.22;;;21.51;71.28
10668;BME280;5382;42.136;24.796;2023-04-15T10:12:37;99358.75;;;21.68;68.67
10668;BME280;5382;42.136;24.796;2023-04-15T10:15:15;99358.00;;;21.52;69.90
10668;BME280;5382;42.136;24.796;2023-04-15T10:17:44;99356.94;;;21.75;78.94
10668;BME280;5382;42.136;24.796;2023-04-15T10:20:13;99351.31;;;21.70;71.11
10668;BME280;5382;42.136;24.796;2023-04-15T10:22:44;99344.34;;;22.17;74.36
10668;BME280;5382;42.136;24.796;2023-04-15T10:25:14;99340.47;;;22.19;78.06
10668;BME280;5382;42.136;24.796;2023-04-15T10:27:41;99328.19;;;22.52;74.36
10668;BME280;5382;42.136;24.796;2023-04-15T10:30:08;99324.41;;;22.39;77.37
10668;BME280;5382;42.136;24.796;2023-04-15T10:32:36;99327.19;;;22.59;81.11
10668;BME280;5382;42.136;24.796;2023-04-15T10:35:06;99321.88;;;22.38;77.94
10668;BME280;5382;42.136;24.796;2023-04-15T10:37:35;99312.09;;;22.24;78.86
10668;BME280;5382;42.136;24.796;2023-04-15T10:40:24;99318.38;;;22.99;70.19
10668;BME280;5382;42.136;24.796;2023-04-15T10:42:52;99313.59;;;23.07;65.32
10668;BME280;5382;42.136;24.796;2023-04-15T10:45:19;99311.53;;;23.56;63.88
10668;BME280;5382;42.136;24.796;2023-04-15T10:47:51;99294.56;;;24.27;68.72
10668;BME280;5382;42.136;24.796;2023-04-15T10:50:20;99305.03;;;24.62;63.47
10668;BME280;5382;42.136;24.796;2023-04-15T10:52:50;99307.34;;;24.58;60.96
10668;BME280;5382;42.136;24.796;2023-04-15T10:55:19;99303.59;;;24.59;61.57
10668;BME280;5382;42.136;24.796;2023-04-15T10:57:50;99306.56;;;25.21;53.19
10668;BME280;5382;42.136;24.796;2023-04-15T11:00:18;99298.19;;;25.73;49.57
10668;BME280;5382;42.136;24.796;2023-04-15T11:02:51;99301.19;;;26.08;49.59
10668;BME280;5382;42.136;24.796;2023-04-15T11:05:21;99293.66;;;26.10;47.19
10668;BME280;5382;42.136;24.796;2023-04-15T11:07:53;99285.31;;;26.42;48.68
10668;BME280;5382;42.136;24.796;2023-04-15T11:10:50;99289.25;;;26.28;49.47
10668;BME280;5382;42.136;24.796;2023-04-15T11:13:25;99285.69;;;25.97;50.88
10668;BME280;5382;42.136;24.796;2023-04-15T11:15:57;99287.78;;;25.70;50.11
10668;BME280;5382;42.136;24.796;2023-04-15T11:18:28;99289.00;;;25.56;49.40
10668;BME280;5382;42.136;24.796;2023-04-15T11:20:58;99280.28;;;26.27;49.41
10668;BME280;5382;42.136;24.796;2023-04-15T11:23:32;99272.28;;;27.23;47.56
10668;BME280;5382;42.136;24.796;2023-04-15T11:26:00;99272.53;;;27.57;45.88
10668;BME280;5382;42.136;24.796;2023-04-15T11:28:29;99277.31;;;27.08;45.85
10668;BME280;5382;42.136;24.796;2023-04-15T11:30:56;99281.41;;;27.29;47.19
10668;BME280;5382;42.136;24.796;2023-04-15T11:33:25;99277.22;;;26.72;47.40
10668;BME280;5382;42.136;24.796;2023-04-15T11:35:52;99265.50;;;26.60;47.24
10668;BME280;5382;42.136;24.796;2023-04-15T11:38:21;99272.22;;;26.58;46.96
10668;BME280;5382;42.136;24.796;2023-04-15T11:40:49;99261.97;;;26.23;48.30
10668;BME280;5382;42.136;24.796;2023-04-15T11:43:18;99259.53;;;26.70;48.21
10668;BME280;5382;42.136;24.796;2023-04-15T11:45:51;99256.94;;;26.75;47.41
10668;BME280;5382;42.136;24.796;2023-04-15T11:48:19;99249.50;;;26.82;47.55
10668;BME280;5382;42.136;24.796;2023-04-15T11:50:52;99242.28;;;27.53;46.80
10668;BME280;5382;42.136;24.796;2023-04-15T11:53:20;99246.31;;;27.51;45.90
10668;BME280;5382;42.136;24.796;2023-04-15T11:55:48;99245.13;;;27.58;45.40
10668;BME280;5382;42.136;24.796;2023-04-15T11:58:17;99231.03;;;27.14;45.80
10668;BME280;5382;42.136;24.796;2023-04-15T12:00:48;99236.03;;;27.17;44.24
10668;BME280;5382;42.136;24.796;2023-04-15T12:03:21;99237.72;;;27.00;44.18
10668;BME280;5382;42.136;24.796;2023-04-15T12:06:12;99231.22;;;27.31;45.10
10668;BME280;5382;42.136;24.796;2023-04-15T12:08:52;99222.56;;;27.81;42.54
10668;BME280;5382;42.136;24.796;2023-04-15T12:14:18;99227.28;;;28.55;42.05
10668;BME280;5382;42.136;24.796;2023-04-15T12:16:46;99220.78;;;28.16;43.34
10668;BME280;5382;42.136;24.796;2023-04-15T12:19:14;99212.75;;;28.49;43.58
10668;BME280;5382;42.136;24.796;2023-04-15T12:21:45;99217.00;;;28.91;42.65
10668;BME280;5382;42.136;24.796;2023-04-15T12:24:14;99218.19;;;28.49;41.67
10668;BME280;5382;42.136;24.796;2023-04-15T12:26:45;99219.38;;;27.37;44.40
10668;BME280;5382;42.136;24.796;2023-04-15T12:29:13;99218.44;;;27.20;45.69
10668;BME280;5382;42.136;24.796;2023-04-15T12:31:48;99210.47;;;27.07;46.40
10668;BME280;5382;42.136;24.796;2023-04-15T12:34:16;99212.91;;;26.73;47.29
10668;BME280;5382;42.136;24.796;2023-04-15T12:36:44;99224.06;;;26.35;47.31
10668;BME280;5382;42.136;24.796;2023-04-15T12:39:12;99223.16;;;26.10;49.17
10668;BME280;5382;42.136;24.796;2023-04-15T12:41:40;99226.13;;;26.51;48.58
10668;BME280;5382;42.136;24.796;2023-04-15T12:44:07;99221.66;;;26.75;50.27
10668;BME280;5382;42.136;24.796;2023-04-15T12:46:34;99211.78;;;26.02;50.62
10668;BME280;5382;42.136;24.796;2023-04-15T12:49:00;99215.53;;;25.45;53.51
10668;BME280;5382;42.136;24.796;2023-04-15T12:51:27;99214.22;;;25.05;55.70
10668;BME280;5382;42.136;24.796;2023-04-15T12:53:54;99220.69;;;24.72;58.30
10668;BME280;5382;42.136;24.796;2023-04-15T12:56:21;99233.97;;;24.48;61.58
10668;BME280;5382;42.136;24.796;2023-04-15T12:58:49;99225.56;;;24.63;63.04
10668;BME280;5382;42.136;24.796;2023-04-15T13:01:16;99228.75;;;24.47;64.11